Time;durP1;ratioP1;P1;durP2;ratioP2;P2;SDS_P1;SDS_P2;PMS_P1;PMS_P2;Temp;Humidity;BMP_temperature;BMP_pressure;BME280_temperature;BME280_humidity;BME280_pressure;Samples;Min_cycle;Max_cycle;Signal;HPM_P1;HPM_P2
2021/05/05 00:00:16;;;;;;;5.35;2.98;;;;;;;32.52;25.92;159731.25;1618333;89;21285;-88
2021/05/05 00:02:49;;;;;;;5.70;3.33;;;;;;;32.52;25.93;159731.25;1628699;86;21258;-89
2021/05/05 00:05:21;;;;;;;7.87;3.47;;;;;;;32.46;25.96;159716.56;1638023;86;21218;-88
2021/05/05 00:07:53;;;;;;;6.28;3.12;;;;;;;32.46;25.96;159715.25;1635283;88;21718;-88
2021/05/05 00:10:25;;;;;;;4.95;3.00;;;;;;;32.42;25.97;159705.88;1634988;88;21246;-89
2021/05/05 00:12:58;;;;;;;3.90;3.05;;;;;;;32.46;25.95;159715.25;1634272;87;21203;-88
2021/05/05 00:15:30;;;;;;;6.10;2.55;;;;;;;32.41;25.95;159701.89;1627256;88;21407;-88
2021/05/05 00:18:02;;;;;;;5.92;3.65;;;;;;;32.39;26.00;159696.53;1636333;87;21200;-88
2021/05/05 00:20:35;;;;;;;4.97;3.58;;;;;;;32.41;25.95;159703.19;1620971;88;21874;-88
2021/05/05 00:23:08;;;;;;;5.35;2.90;;;;;;;32.38;25.98;159693.88;1611814;88;21221;-89
2021/05/05 00:25:41;;;;;;;5.03;2.65;;;;;;;32.39;25.97;159696.53;1618197;89;21410;-89
2021/05/05 00:28:13;;;;;;;5.20;2.50;;;;;;;32.38;25.96;159695.23;1618820;88;21393;-88
2021/05/05 00:30:45;;;;;;;5.22;2.77;;;;;;;32.39;25.95;159696.53;1582654;89;21857;-89
2021/05/05 00:33:17;;;;;;;5.08;2.83;;;;;;;32.40;25.93;159699.22;1592980;88;21385;-88
2021/05/05 00:35:50;;;;;;;4.95;2.62;;;;;;;32.30;25.98;159673.84;1604686;88;21337;-88
2021/05/05 00:38:22;;;;;;;5.70;3.00;;;;;;;32.26;26.01;159663.20;1603122;89;21949;-87
2021/05/05 00:40:54;;;;;;;4.92;2.37;;;;;;;32.29;25.98;159671.17;1603027;89;21227;-87
2021/05/05 00:43:27;;;;;;;3.83;2.37;;;;;;;32.31;25.94;159676.52;1620175;88;21223;-87
2021/05/05 00:45:59;;;;;;;4.53;3.02;;;;;;;32.29;25.95;159671.17;1633157;88;21197;-87
2021/05/05 00:48:31;;;;;;;3.95;2.20;;;;;;;32.26;25.96;159661.84;1628747;87;21333;-87
2021/05/05 00:51:04;;;;;;;6.28;2.52;;;;;;;32.29;25.94;159671.17;1621683;88;21368;-87
2021/05/05 00:53:39;;;;;;;5.72;3.37;;;;;;;32.35;25.88;159687.20;1607764;88;21590;-88
2021/05/05 00:56:11;;;;;;;6.90;2.40;;;;;;;32.32;25.88;159679.19;1598686;90;21286;-87
2021/05/05 00:58:43;;;;;;;4.15;2.80;;;;;;;32.22;25.95;159649.84;1600223;89;21298;-87
2021/05/05 01:01:16;;;;;;;3.95;2.10;;;;;;;32.23;25.94;159653.88;1601020;89;21737;-87
2021/05/05 01:03:49;;;;;;;3.42;2.33;;;;;;;32.25;25.93;159660.53;1601176;88;21258;-86
2021/05/05 01:06:21;;;;;;;6.47;3.22;;;;;;;32.21;25.94;159647.16;1603146;88;21349;-87
2021/05/05 01:08:54;;;;;;;5.20;3.05;;;;;;;32.23;25.92;159653.88;1605389;88;21395;-87
2021/05/05 01:11:26;;;;;;;3.80;2.22;;;;;;;32.13;25.98;159625.83;1605471;87;21219;-87
2021/05/05 01:13:58;;;;;;;4.95;2.42;;;;;;;32.17;25.94;159637.83;1599208;88;21380;-87
2021/05/05 01:16:31;;;;;;;4.72;2.50;;;;;;;32.16;25.93;159633.84;1598291;88;21412;-86
2021/05/05 01:19:41;;;;;;;4.42;2.27;;;;;;;32.04;25.98;159601.78;1598340;88;21317;-86
2021/05/05 01:22:13;;;;;;;4.58;2.55;;;;;;;32.04;26.01;159601.78;1619474;88;21244;-86
2021/05/05 01:24:46;;;;;;;5.33;2.17;;;;;;;31.98;26.04;159585.73;1625479;88;21362;-89
2021/05/05 01:27:19;;;;;;;4.05;2.50;;;;;;;31.94;26.07;159575.09;1626493;88;21341;-86
2021/05/05 01:29:51;;;;;;;6.10;2.72;;;;;;;31.90;26.11;159564.41;1627103;88;21331;-88
2021/05/05 01:32:23;;;;;;;3.08;2.30;;;;;;;31.88;26.12;159560.42;1629377;86;21204;-88
2021/05/05 01:34:56;;;;;;;4.15;2.42;;;;;;;31.87;26.11;159556.39;1620349;88;21960;-88
2021/05/05 01:37:29;;;;;;;2.58;2.10;;;;;;;31.87;26.12;159557.75;1600896;89;21416;-89
2021/05/05 01:40:03;;;;;;;4.28;1.90;;;;;;;31.90;26.09;159564.41;1600872;89;21916;-87
2021/05/05 01:42:35;;;;;;;4.85;2.60;;;;;;;31.89;26.09;159561.73;1593800;88;21249;-87
2021/05/05 01:45:08;;;;;;;3.12;2.12;;;;;;;31.88;26.08;159559.06;1593534;90;21787;-87
2021/05/05 01:47:41;;;;;;;3.37;2.22;;;;;;;31.85;26.10;159552.41;1593570;90;21236;-87
2021/05/05 01:50:14;;;;;;;3.87;2.10;;;;;;;31.87;26.09;159556.39;1593764;90;21847;-87
2021/05/05 01:52:46;;;;;;;3.65;2.27;;;;;;;31.89;26.07;159563.05;1593723;90;21351;-88
2021/05/05 01:55:19;;;;;;;2.95;1.98;;;;;;;31.88;26.08;159559.06;1591048;89;21860;-88
2021/05/05 01:57:52;;;;;;;4.05;2.30;;;;;;;31.91;26.06;159567.08;1591088;90;21262;-88
2021/05/05 02:00:30;;;;;;;5.22;2.30;;;;;;;31.90;26.05;159564.41;1590672;89;21693;-88
2021/05/05 02:03:10;;;;;;;4.33;2.65;;;;;;;31.86;26.07;159555.08;1637679;87;21363;-88
2021/05/05 02:05:50;;;;;;;2.70;2.05;;;;;;;31.82;26.10;159544.39;1617698;88;21738;-88
2021/05/05 02:08:24;;;;;;;3.42;2.47;;;;;;;31.77;26.11;159531.03;1594292;88;21421;-89
2021/05/05 02:10:57;;;;;;;3.62;1.82;;;;;;;31.81;26.10;159541.72;1615904;87;21349;-88
2021/05/05 02:13:30;;;;;;;4.53;2.10;;;;;;;31.84;26.06;159549.73;1615297;89;21425;-89
2021/05/05 02:16:03;;;;;;;4.83;1.95;;;;;;;31.76;26.08;159528.41;1615316;87;21316;-88
2021/05/05 02:18:37;;;;;;;3.20;2.00;;;;;;;31.77;26.10;159529.72;1615433;87;21398;-88
2021/05/05 02:21:10;;;;;;;3.70;2.30;;;;;;;31.70;26.13;159511.06;1622509;87;21331;-87
2021/05/05 02:23:42;;;;;;;3.40;1.80;;;;;;;31.71;26.10;159513.73;1634453;88;21232;-88
2021/05/05 02:26:15;;;;;;;4.17;2.42;;;;;;;31.63;26.17;159492.36;1597790;89;21239;-88
2021/05/05 02:28:49;;;;;;;5.12;2.77;;;;;;;31.63;26.15;159492.36;1615344;89;21893;-88
2021/05/05 02:31:26;;;;;;;4.42;2.22;;;;;;;31.70;26.11;159512.38;1620000;87;21188;-87
2021/05/05 02:33:59;;;;;;;3.87;2.27;;;;;;;31.65;26.15;159499.06;1645723;86;21357;-87
2021/05/05 02:36:35;;;;;;;4.17;2.60;;;;;;;31.66;26.13;159501.69;1642566;87;21260;-87
2021/05/05 02:39:09;;;;;;;5.75;2.62;;;;;;;31.71;26.09;159513.73;1635222;87;21265;-87
2021/05/05 02:41:42;;;;;;;4.35;3.17;;;;;;;31.68;26.11;159505.72;1630574;88;21771;-87
2021/05/05 02:44:15;;;;;;;4.00;2.40;;;;;;;31.71;26.09;159513.73;1636462;88;21224;-87
2021/05/05 02:46:48;;;;;;;3.58;2.33;;;;;;;31.71;26.08;159513.73;1636615;88;21221;-88
2021/05/05 02:49:20;;;;;;;4.45;2.45;;;;;;;31.68;26.07;159507.03;1633222;87;21257;-90
2021/05/05 02:51:53;;;;;;;4.72;2.42;;;;;;;31.67;26.09;159503.05;1623645;88;21255;-89
2021/05/05 02:54:25;;;;;;;4.25;2.47;;;;;;;31.65;26.11;159497.70;1616432;88;21280;-88
2021/05/05 02:56:58;;;;;;;3.83;2.42;;;;;;;31.63;26.13;159493.72;1621101;87;21402;-88
2021/05/05 02:59:30;;;;;;;5.42;2.65;;;;;;;31.65;26.12;159497.70;1618738;87;21300;-88
2021/05/05 03:02:02;;;;;;;2.47;2.00;;;;;;;31.68;26.09;159505.72;1618573;89;21350;-89
2021/05/05 03:04:35;;;;;;;3.10;2.27;;;;;;;31.59;26.15;159481.72;1618201;89;21189;-88
2021/05/05 03:07:07;;;;;;;3.52;2.12;;;;;;;31.59;26.13;159481.72;1618401;89;21916;-90
2021/05/05 03:09:40;;;;;;;6.65;2.72;;;;;;;31.57;26.15;159477.69;1626942;87;21429;-89
2021/05/05 03:12:12;;;;;;;4.25;2.55;;;;;;;31.59;26.15;159483.03;1601098;88;21345;-87
2021/05/05 03:14:46;;;;;;;4.97;2.50;;;;;;;31.63;26.12;159493.72;1600691;88;21227;-87
2021/05/05 03:17:18;;;;;;;4.85;2.67;;;;;;;31.70;26.06;159511.06;1600808;88;21266;-87
2021/05/05 03:19:51;;;;;;;3.92;2.40;;;;;;;31.64;26.08;159495.03;1600715;89;21278;-88
2021/05/05 03:22:23;;;;;;;3.00;1.92;;;;;;;31.62;26.11;159489.69;1600778;89;21364;-87
2021/05/05 03:24:56;;;;;;;3.65;2.12;;;;;;;31.59;26.12;159481.72;1600777;89;21377;-88
2021/05/05 03:27:28;;;;;;;4.90;2.25;;;;;;;31.64;26.13;159495.03;1601430;88;21765;-85
2021/05/05 03:30:01;;;;;;;4.25;2.20;;;;;;;31.63;26.13;159492.36;1630639;87;21183;-85
2021/05/05 03:32:35;;;;;;;3.90;2.25;;;;;;;31.65;26.11;159499.06;1630799;88;21673;-86
2021/05/05 03:35:09;;;;;;;3.25;2.37;;;;;;;31.65;26.10;159499.06;1630574;88;21217;-84
2021/05/05 03:37:41;;;;;;;2.90;2.02;;;;;;;31.66;26.09;159501.69;1627626;88;21245;-85
2021/05/05 03:40:13;;;;;;;3.12;2.00;;;;;;;31.72;26.06;159517.72;1601113;89;21234;-86
2021/05/05 03:42:46;;;;;;;2.65;1.95;;;;;;;31.73;26.04;159520.39;1597555;89;21737;-89
2021/05/05 03:45:18;;;;;;;3.42;2.25;;;;;;;31.82;26.00;159544.39;1571356;91;21246;-88
2021/05/05 03:47:51;;;;;;;3.52;2.30;;;;;;;31.83;26.00;159545.75;1597373;90;21289;-87
2021/05/05 03:50:24;;;;;;;2.77;2.08;;;;;;;31.79;26.02;159536.38;1584993;89;21256;-86
2021/05/05 03:52:56;;;;;;;3.27;2.30;;;;;;;31.77;26.03;159529.72;1600891;88;21223;-85
2021/05/05 03:55:29;;;;;;;3.45;2.05;;;;;;;31.83;26.01;159545.75;1606901;88;21206;-86
2021/05/05 03:58:02;;;;;;;2.87;2.02;;;;;;;31.72;26.06;159517.72;1558794;92;21405;-86
2021/05/05 04:00:35;;;;;;;3.87;2.08;;;;;;;31.73;26.07;159520.39;1577562;89;21404;-85
2021/05/05 04:03:07;;;;;;;3.98;2.17;;;;;;;31.78;26.04;159533.70;1583698;89;21971;-88
2021/05/05 04:05:40;;;;;;;3.55;1.90;;;;;;;31.78;26.05;159533.70;1580702;89;21775;-87
2021/05/05 04:08:13;;;;;;;3.65;2.17;;;;;;;31.80;26.03;159537.73;1582166;89;21398;-91
2021/05/05 04:10:46;;;;;;;4.33;2.35;;;;;;;31.80;26.07;159537.73;1583597;89;21715;-90
2021/05/05 04:13:19;;;;;;;2.45;1.87;;;;;;;31.79;26.07;159535.06;1583024;89;21598;-91
2021/05/05 04:16:10;;;;;;;2.37;2.05;;;;;;;31.77;26.10;159529.72;1583162;89;21360;-89
2021/05/05 04:19:00;;;;;;;3.67;2.10;;;;;;;31.79;26.08;159535.06;1581271;89;21382;-89
2021/05/05 04:21:51;;;;;;;4.43;2.30;;;;;;;31.85;26.05;159552.41;1581867;89;21240;-88
2021/05/05 04:24:40;;;;;;;3.00;1.80;;;;;;;31.89;26.04;159561.73;1579385;89;21403;-86
2021/05/05 04:27:15;;;;;;;3.10;1.90;;;;;;;31.92;26.01;159571.06;1582561;89;21235;-89
2021/05/05 04:29:49;;;;;;;2.75;2.17;;;;;;;31.97;25.99;159584.44;1578259;89;21260;-87
2021/05/05 04:32:23;;;;;;;2.85;2.00;;;;;;;32.00;25.96;159591.09;1584560;89;21260;-88
2021/05/05 04:34:56;;;;;;;3.85;2.77;;;;;;;31.99;25.99;159589.77;1582339;89;21367;-86
2021/05/05 04:37:29;;;;;;;2.62;1.75;;;;;;;32.00;26.00;159591.09;1582467;89;21355;-86
2021/05/05 04:40:03;;;;;;;2.17;1.98;;;;;;;32.00;26.00;159592.39;1582856;89;21375;-86
2021/05/05 04:42:36;;;;;;;4.10;1.98;;;;;;;32.04;25.98;159603.09;1584787;89;21454;-87
2021/05/05 04:45:11;;;;;;;3.30;1.90;;;;;;;32.09;26.01;159616.50;1585171;89;21220;-85
2021/05/05 04:47:50;;;;;;;3.40;1.77;;;;;;;32.13;26.01;159627.14;1583392;89;21224;-88
2021/05/05 04:50:27;;;;;;;1.98;1.60;;;;;;;32.17;26.02;159636.53;1584126;89;21372;-87
2021/05/05 04:52:59;;;;;;;4.30;1.98;;;;;;;32.17;26.04;159637.83;1583498;89;21395;-88
2021/05/05 04:55:32;;;;;;;2.33;1.70;;;;;;;32.21;26.08;159648.53;1583078;89;22415;-88
2021/05/05 04:58:07;;;;;;;3.70;1.70;;;;;;;32.23;26.24;159655.19;1609438;87;21243;-85
2021/05/05 05:00:39;;;;;;;5.12;1.90;;;;;;;32.30;26.19;159673.84;1619408;87;21378;-85
2021/05/05 05:03:12;;;;;;;3.60;1.98;;;;;;;32.34;26.25;159684.53;1609532;88;21360;-86
2021/05/05 05:05:46;;;;;;;3.67;1.80;;;;;;;32.37;26.26;159691.19;1620058;86;21237;-85
2021/05/05 05:08:18;;;;;;;4.12;2.00;;;;;;;32.45;26.21;159713.89;1620747;87;21781;-84
2021/05/05 05:10:50;;;;;;;2.30;1.67;;;;;;;32.49;26.21;159723.22;1608226;86;21211;-82
2021/05/05 05:13:23;;;;;;;5.45;1.90;;;;;;;32.59;26.21;159751.33;1584123;89;21193;-84
2021/05/05 05:15:56;;;;;;;3.02;1.80;;;;;;;32.93;25.95;159842.09;1621742;88;21230;-84
2021/05/05 05:18:28;;;;;;;3.10;1.82;;;;;;;32.78;26.13;159800.72;1621660;86;21203;-85
2021/05/05 05:21:02;;;;;;;4.22;2.00;;;;;;;32.83;26.09;159814.03;1601671;88;21154;-86
2021/05/05 05:23:35;;;;;;;1.92;1.57;;;;;;;32.89;26.12;159831.39;1611188;87;21215;-85
2021/05/05 05:26:07;;;;;;;2.40;1.70;;;;;;;32.83;26.17;159814.03;1630619;86;21226;-85
2021/05/05 05:28:39;;;;;;;1.57;1.47;;;;;;;32.79;26.24;159803.39;1577144;91;21237;-85
2021/05/05 05:31:11;;;;;;;4.22;2.30;;;;;;;32.85;26.27;159820.75;1597503;88;21210;-85
2021/05/05 05:33:44;;;;;;;2.10;1.52;;;;;;;32.88;26.21;159828.72;1607383;88;21364;-85
2021/05/05 05:36:17;;;;;;;2.60;1.55;;;;;;;32.96;26.19;159850.13;1622940;87;21723;-85
2021/05/05 05:38:50;;;;;;;2.52;1.62;;;;;;;32.99;26.22;159858.09;1608446;88;21217;-85
2021/05/05 05:41:22;;;;;;;3.02;2.10;;;;;;;33.07;26.22;159878.12;1605160;88;21327;-85
2021/05/05 05:43:54;;;;;;;6.35;1.60;;;;;;;33.09;26.25;159884.83;1609187;88;21854;-85
2021/05/05 05:46:27;;;;;;;2.70;1.65;;;;;;;33.17;26.19;159906.23;1622751;88;21349;-85
2021/05/05 05:48:59;;;;;;;2.75;1.60;;;;;;;33.24;26.20;159926.27;1623264;87;21304;-85
2021/05/05 05:51:32;;;;;;;2.58;1.87;;;;;;;33.33;26.19;159948.98;1613718;87;21356;-85
2021/05/05 05:54:06;;;;;;;2.37;1.47;;;;;;;33.27;26.32;159932.94;1611096;87;21813;-85
2021/05/05 05:56:38;;;;;;;2.42;1.60;;;;;;;33.32;26.36;159946.31;1616924;87;21212;-85
2021/05/05 05:59:10;;;;;;;2.25;1.62;;;;;;;33.38;26.39;159962.31;1618357;88;21372;-85
2021/05/05 06:01:44;;;;;;;2.72;1.50;;;;;;;33.38;26.40;159962.31;1609004;88;21193;-85
2021/05/05 06:04:19;;;;;;;2.10;1.32;;;;;;;33.42;26.41;159973.00;1616323;87;21410;-85
2021/05/05 06:06:51;;;;;;;2.65;1.50;;;;;;;33.55;26.42;160009.05;1602454;88;21241;-85
2021/05/05 06:09:24;;;;;;;2.35;1.40;;;;;;;33.63;26.44;160030.45;1607895;88;21249;-85
2021/05/05 06:11:56;;;;;;;1.72;1.40;;;;;;;33.63;26.46;160029.14;1610107;88;21276;-85
2021/05/05 06:14:29;;;;;;;3.62;1.30;;;;;;;33.68;26.51;160042.53;1614645;88;21260;-85
2021/05/05 06:17:03;;;;;;;1.62;1.20;;;;;;;33.75;26.54;160062.52;1582842;90;21328;-85
2021/05/05 06:19:36;;;;;;;13.08;2.62;;;;;;;33.80;26.62;160074.53;1581172;89;21719;-86
2021/05/05 06:22:08;;;;;;;3.02;1.40;;;;;;;33.84;26.70;160085.23;1592791;88;21772;-85
2021/05/05 06:24:42;;;;;;;4.75;1.50;;;;;;;33.92;26.72;160106.59;1605639;88;21245;-85
2021/05/05 06:27:14;;;;;;;7.55;1.47;;;;;;;33.93;26.82;160110.63;1601449;88;21213;-85
2021/05/05 06:29:47;;;;;;;16.60;2.87;;;;;;;34.06;26.85;160144.02;1598587;88;21247;-85
2021/05/05 06:32:20;;;;;;;5.30;1.60;;;;;;;34.10;26.93;160154.78;1596413;88;21194;-85
2021/05/05 06:34:56;;;;;;;3.70;1.40;;;;;;;34.13;27.03;160162.81;1620765;88;21317;-85
2021/05/05 06:37:28;;;;;;;4.28;1.50;;;;;;;34.22;27.12;160189.52;1619707;87;21300;-85
2021/05/05 06:40:01;;;;;;;4.15;1.45;;;;;;;34.26;27.14;160198.86;1616605;88;21278;-85
2021/05/05 06:42:35;;;;;;;3.80;1.67;;;;;;;34.36;27.18;160226.94;1609494;88;21238;-85
2021/05/05 06:45:08;;;;;;;2.85;1.32;;;;;;;34.48;27.18;160257.66;1596049;88;21725;-85
2021/05/05 06:47:40;;;;;;;5.53;1.35;;;;;;;34.48;27.26;160257.66;1609707;88;21177;-85
2021/05/05 06:50:13;;;;;;;4.28;1.60;;;;;;;34.68;27.23;160311.16;1603273;88;21635;-85
2021/05/05 06:52:46;;;;;;;3.37;1.72;;;;;;;34.69;27.32;160315.20;1618825;88;21821;-86
2021/05/05 06:55:18;;;;;;;2.92;1.47;;;;;;;34.70;27.37;160317.88;1619297;87;21471;-85
2021/05/05 06:57:51;;;;;;;2.45;1.50;;;;;;;34.71;27.50;160320.56;1615941;88;21216;-86
2021/05/05 07:00:24;;;;;;;2.10;1.40;;;;;;;34.87;27.51;160363.30;1574666;89;21451;-85
2021/05/05 07:02:56;;;;;;;3.37;1.37;;;;;;;34.97;27.52;160390.03;1587407;88;21262;-86
2021/05/05 07:05:28;;;;;;;4.17;1.40;;;;;;;35.05;27.49;160411.50;1600179;89;21852;-85
2021/05/05 07:08:01;;;;;;;4.75;2.02;;;;;;;35.06;27.61;160414.19;1587422;89;21206;-85
2021/05/05 07:10:33;;;;;;;3.05;1.40;;;;;;;35.13;27.68;160432.88;1605157;89;21207;-85
2021/05/05 07:13:06;;;;;;;2.95;1.30;;;;;;;35.23;27.73;160460.98;1582587;89;21741;-85
2021/05/05 07:15:38;;;;;;;2.70;1.47;;;;;;;35.70;27.59;160586.75;1592555;89;21246;-85
2021/05/05 07:18:11;;;;;;;3.08;1.35;;;;;;;35.43;27.81;160513.09;1600715;89;21383;-85
2021/05/05 07:20:44;;;;;;;8.68;2.33;;;;;;;35.45;27.86;160519.81;1600427;88;21927;-85
2021/05/05 07:23:16;;;;;;;3.27;1.37;;;;;;;35.56;27.94;160547.92;1556852;92;21280;-85
2021/05/05 07:25:48;;;;;;;3.90;2.15;;;;;;;35.64;27.98;160569.36;1557764;91;21282;-85
2021/05/05 07:28:20;;;;;;;3.77;1.52;;;;;;;35.69;28.01;160582.70;1581635;89;21703;-85
2021/05/05 07:30:53;;;;;;;6.28;1.65;;;;;;;35.77;28.08;160605.45;1587100;89;21295;-86
2021/05/05 07:33:26;;;;;;;5.47;1.60;;;;;;;35.80;28.10;160613.50;1592766;89;21742;-85
2021/05/05 07:35:58;;;;;;;3.47;1.60;;;;;;;35.91;28.16;160641.56;1613000;88;21795;-85
2021/05/05 07:38:52;;;;;;;6.17;1.62;;;;;;;35.99;28.19;160664.36;1604308;88;21347;-85
2021/05/05 07:49:29;;;;;;;5.50;1.72;;;;;;;36.40;28.28;160775.42;1618405;86;21395;-85
2021/05/05 07:51:59;;;;;;;2.85;1.20;;;;;;;36.46;28.30;160791.50;1621718;88;21197;-85
2021/05/05 07:54:30;;;;;;;6.95;2.22;;;;;;;36.49;28.36;160799.55;1603600;88;21337;-85
2021/05/05 07:57:02;;;;;;;2.45;1.37;;;;;;;36.66;28.33;160843.72;1611159;88;21719;-84
2021/05/05 07:59:34;;;;;;;4.92;2.40;;;;;;;36.78;28.28;160877.20;1608173;88;21262;-85
2021/05/05 08:02:06;;;;;;;2.87;1.40;;;;;;;36.85;28.32;160894.61;1609541;86;21332;-85
2021/05/05 08:04:48;;;;;;;2.33;1.82;;;;;;;36.92;28.34;160914.75;1615725;88;21387;-85
2021/05/05 08:07:13;;;;;;;6.65;1.52;;;;;;;36.98;28.35;160930.78;1631013;88;21336;-86
2021/05/05 08:09:46;;;;;;;2.62;1.65;;;;;;;37.12;28.29;160969.59;1608077;88;21331;-85
2021/05/05 08:12:19;;;;;;;4.55;1.45;;;;;;;37.22;28.29;160996.38;1618267;88;21358;-85
2021/05/05 08:14:52;;;;;;;3.00;1.70;;;;;;;37.26;28.29;161007.09;1612480;88;21358;-85
2021/05/05 08:17:24;;;;;;;3.80;1.50;;;;;;;37.38;28.26;161037.97;1615058;88;21184;-85
2021/05/05 08:19:58;;;;;;;1.85;1.55;;;;;;;37.43;28.21;161051.34;1620807;87;21745;-85
2021/05/05 08:22:30;;;;;;;3.95;1.47;;;;;;;37.51;28.24;161072.75;1606478;88;21202;-85
2021/05/05 08:25:03;;;;;;;3.02;1.70;;;;;;;37.63;28.22;161104.89;1604201;88;21399;-85
2021/05/05 08:27:35;;;;;;;3.95;1.47;;;;;;;37.67;28.25;161115.63;1606640;88;21344;-85
2021/05/05 08:30:09;;;;;;;1.70;1.40;;;;;;;37.78;28.23;161146.45;1629476;87;21867;-85
2021/05/05 08:32:41;;;;;;;1.70;1.50;;;;;;;37.81;28.25;161153.19;1613567;88;21472;-85
2021/05/05 08:35:14;;;;;;;2.15;1.30;;;;;;;37.92;28.19;161183.97;1631704;87;21308;-84
2021/05/05 08:37:49;;;;;;;2.00;1.40;;;;;;;37.97;28.12;161197.39;1632046;88;21198;-86
2021/05/05 08:40:21;;;;;;;2.55;1.35;;;;;;;38.08;28.01;161228.17;1608366;88;21353;-86
2021/05/05 08:42:53;;;;;;;4.40;2.22;;;;;;;38.12;27.98;161238.91;1605609;89;21263;-86
2021/05/05 08:45:28;;;;;;;1.50;1.30;;;;;;;38.26;27.81;161275.13;1582998;89;21356;-86
2021/05/05 08:48:04;;;;;;;1.37;1.27;;;;;;;38.32;27.77;161292.53;1605853;88;21209;-85
2021/05/05 08:50:39;;;;;;;2.22;1.40;;;;;;;38.41;27.67;161315.33;1587852;88;21208;-86
2021/05/05 08:53:11;;;;;;;3.42;1.42;;;;;;;38.45;27.64;161326.06;1594941;89;21235;-86
2021/05/05 08:55:43;;;;;;;2.65;1.30;;;;;;;38.62;27.50;161372.97;1581636;91;21207;-86
2021/05/05 08:58:16;;;;;;;4.10;1.98;;;;;;;38.55;27.51;161354.19;1580522;91;21747;-85
2021/05/05 09:00:48;;;;;;;3.98;1.30;;;;;;;38.71;27.33;161397.13;1612334;87;21704;-87
2021/05/05 09:03:43;;;;;;;2.10;1.05;;;;;;;38.73;27.20;161402.50;1593808;88;21206;-85
2021/05/05 09:06:10;;;;;;;4.25;1.37;;;;;;;38.81;27.03;161423.94;1633981;87;21708;-85
2021/05/05 09:08:50;;;;;;;2.52;1.60;;;;;;;38.93;26.89;161456.11;1643449;86;21372;-85
2021/05/05 09:11:22;;;;;;;2.62;1.35;;;;;;;39.00;26.78;161474.91;1625406;87;21352;-85
2021/05/05 09:13:59;;;;;;;1.55;1.10;;;;;;;39.10;26.63;161503.08;1615156;87;21307;-85
2021/05/05 09:16:32;;;;;;;1.82;1.40;;;;;;;39.13;26.54;161511.13;1614290;87;21416;-85
2021/05/05 09:19:11;;;;;;;3.25;1.30;;;;;;;39.27;26.44;161548.69;1599429;87;21293;-85
2021/05/05 09:21:52;;;;;;;1.87;1.17;;;;;;;39.34;26.38;161567.44;1634482;87;21324;-85
2021/05/05 09:24:29;;;;;;;3.62;1.37;;;;;;;39.38;26.32;161576.81;1610692;87;21400;-85
2021/05/05 09:27:04;;;;;;;2.90;1.50;;;;;;;39.46;26.31;161598.30;1606569;88;21361;-85
2021/05/05 09:29:48;;;;;;;1.62;1.17;;;;;;;39.57;26.24;161627.84;1608508;87;21724;-85
2021/05/05 09:32:21;;;;;;;1.35;1.10;;;;;;;39.63;26.22;161643.91;1606877;87;21869;-85
2021/05/05 09:35:04;;;;;;;2.77;1.40;;;;;;;39.73;26.15;161670.72;1609161;87;21879;-85
2021/05/05 09:37:36;;;;;;;1.72;1.20;;;;;;;39.83;26.06;161697.53;1638765;86;21351;-85
2021/05/05 09:40:11;;;;;;;1.70;1.17;;;;;;;39.88;25.98;161712.30;1619978;87;21342;-85
2021/05/05 09:42:45;;;;;;;3.95;1.27;;;;;;;39.93;25.94;161727.09;1606845;87;21862;-86
2021/05/05 09:45:18;;;;;;;3.45;1.20;;;;;;;40.00;25.84;161745.91;1606721;88;21731;-85
2021/05/05 09:47:56;;;;;;;3.05;1.35;;;;;;;40.02;25.81;161749.91;1606551;88;21717;-85
2021/05/05 09:50:42;;;;;;;2.72;1.27;;;;;;;40.09;25.72;161770.03;1631391;86;21241;-85
2021/05/05 09:53:20;;;;;;;2.15;1.20;;;;;;;40.17;25.67;161790.17;1610627;87;21442;-85
2021/05/05 09:56:00;;;;;;;3.45;1.40;;;;;;;40.25;25.63;161811.63;1607407;88;21404;-85
2021/05/05 09:58:39;;;;;;;3.00;1.62;;;;;;;40.33;25.59;161833.13;1577164;89;22006;-85
2021/05/05 10:01:15;;;;;;;2.35;1.17;;;;;;;40.42;25.47;161858.63;1637813;87;21312;-84
2021/05/05 10:03:54;;;;;;;2.60;1.50;;;;;;;40.50;25.38;161878.75;1622376;86;21744;-84
2021/05/05 10:06:36;;;;;;;4.80;1.77;;;;;;;40.57;25.32;161897.58;1612970;87;21252;-85
2021/05/05 10:09:12;;;;;;;2.10;1.30;;;;;;;40.59;25.27;161902.91;1632507;87;21213;-85
2021/05/05 10:11:49;;;;;;;1.47;1.17;;;;;;;40.64;25.14;161917.66;1587820;88;21370;-85
2021/05/05 10:14:22;;;;;;;1.72;1.07;;;;;;;40.70;25.09;161933.78;1608839;88;21260;-84
2021/05/05 10:16:55;;;;;;;3.55;1.45;;;;;;;40.76;25.00;161948.59;1636392;88;21241;-84
2021/05/05 10:19:34;;;;;;;2.12;1.30;;;;;;;40.80;24.93;161959.36;1622498;88;21209;-84
2021/05/05 10:22:06;;;;;;;2.35;1.02;;;;;;;40.78;24.96;161953.98;1604904;88;21174;-84
2021/05/05 10:24:42;;;;;;;1.12;1.00;;;;;;;40.81;24.93;161963.36;1601371;88;21198;-83
2021/05/05 10:27:15;;;;;;;3.00;1.20;;;;;;;40.84;24.86;161970.06;1594691;89;21362;-84
2021/05/05 10:29:50;;;;;;;1.47;1.20;;;;;;;40.87;24.66;161979.44;1584935;89;21250;-83
2021/05/05 10:32:29;;;;;;;3.05;1.10;;;;;;;40.84;24.51;161970.06;1569327;90;21423;-84
2021/05/05 10:34:58;;;;;;;2.40;1.17;;;;;;;40.93;24.27;161996.89;1559427;90;21759;-84
2021/05/05 10:37:49;;;;;;;2.72;1.37;;;;;;;40.93;24.18;161996.89;1621844;87;21245;-84
2021/05/05 10:40:29;;;;;;;1.12;0.98;;;;;;;41.00;24.15;162014.34;1631549;87;21371;-84
2021/05/05 10:43:08;;;;;;;1.37;0.93;;;;;;;41.12;24.11;162046.56;1613175;87;21197;-84
2021/05/05 10:45:45;;;;;;;2.55;1.17;;;;;;;41.17;24.09;162060.06;1613927;87;21273;-84
2021/05/05 10:48:19;;;;;;;1.90;1.30;;;;;;;41.19;23.95;162066.75;1612982;87;21359;-83
2021/05/05 10:50:57;;;;;;;1.42;1.30;;;;;;;41.24;23.84;162080.20;1587331;90;21860;-83
2021/05/05 10:53:47;;;;;;;1.60;1.42;;;;;;;41.35;23.80;162109.73;1596950;87;21229;-83
2021/05/05 10:56:27;;;;;;;1.90;1.40;;;;;;;41.39;23.78;162120.44;1611811;87;21962;-83
2021/05/05 10:59:09;;;;;;;2.90;1.10;;;;;;;41.46;23.79;162139.25;1613039;87;21473;-83
2021/05/05 11:01:50;;;;;;;2.12;1.00;;;;;;;41.55;23.70;162162.09;1611539;87;21387;-83
2021/05/05 11:04:22;;;;;;;1.72;1.30;;;;;;;41.55;23.68;162163.47;1613410;88;21308;-83
2021/05/05 11:06:57;;;;;;;1.77;1.30;;;;;;;41.60;23.55;162175.55;1631048;87;21187;-83
2021/05/05 11:09:40;;;;;;;1.50;1.30;;;;;;;41.67;23.50;162194.37;1627493;86;21226;-82
2021/05/05 11:12:39;;;;;;;2.08;1.62;;;;;;;41.71;23.38;162205.09;1646538;86;22368;-83
2021/05/05 11:15:11;;;;;;;2.55;1.27;;;;;;;41.67;23.30;162195.69;1638171;87;21222;-82
2021/05/05 11:17:43;;;;;;;3.42;1.50;;;;;;;41.72;23.18;162207.78;1618153;88;21234;-83
2021/05/05 11:20:42;;;;;;;2.52;1.30;;;;;;;41.82;23.05;162234.63;1646540;87;21266;-83
2021/05/05 11:23:44;;;;;;;1.60;1.10;;;;;;;41.78;23.03;162225.23;1645827;87;21207;-84
2021/05/05 11:26:22;;;;;;;1.67;1.02;;;;;;;41.78;22.97;162223.91;1579083;88;21235;-83
2021/05/05 11:29:03;;;;;;;1.37;1.07;;;;;;;41.77;22.91;162221.22;1577922;89;21364;-83
2021/05/05 11:31:53;;;;;;;2.62;1.15;;;;;;;41.69;22.85;162199.70;1616512;88;21787;-83
2021/05/05 11:34:30;;;;;;;3.15;1.07;;;;;;;41.80;22.64;162229.23;1630673;86;21704;-83
2021/05/05 11:37:26;;;;;;;0.80;0.80;;;;;;;41.87;22.37;162249.39;1567801;91;21232;-83
2021/05/05 11:40:04;;;;;;;3.08;1.17;;;;;;;41.83;22.24;162238.69;1575035;88;21248;-83
2021/05/05 11:42:39;;;;;;;2.87;1.20;;;;;;;41.87;22.08;162249.39;1593441;90;21230;-83
2021/05/05 11:45:14;;;;;;;1.98;1.20;;;;;;;41.87;22.07;162248.06;1593588;88;21241;-83
2021/05/05 11:47:48;;;;;;;4.03;0.93;;;;;;;41.94;22.11;162268.22;1595812;88;21403;-83
2021/05/05 11:50:25;;;;;;;1.50;1.20;;;;;;;41.92;22.10;162264.16;1580094;89;21350;-83
2021/05/05 11:52:57;;;;;;;1.47;1.00;;;;;;;41.94;22.18;162269.55;1600308;87;21190;-83
2021/05/05 11:55:30;;;;;;;1.05;0.93;;;;;;;41.96;22.20;162274.98;1621738;87;21226;-83
2021/05/05 11:58:03;;;;;;;1.85;1.20;;;;;;;42.02;22.15;162289.75;1621667;88;21697;-84
2021/05/05 12:00:39;;;;;;;1.65;1.00;;;;;;;41.95;22.11;162272.28;1620354;88;21179;-83
2021/05/05 12:03:12;;;;;;;2.37;1.22;;;;;;;42.01;22.05;162288.44;1599048;87;21208;-83
2021/05/05 12:05:46;;;;;;;1.37;1.00;;;;;;;42.11;22.04;162315.28;1607107;89;21295;-84